sensor_id;sensor_type;location;lat;lon;timestamp;temperature;humidity
1337;DHT22;662;48.814;9.318;2022-12-24T00:02:12;13.50;69.50
1337;DHT22;662;48.814;9.318;2022-12-24T00:04:37;13.50;69.10
1337;DHT22;662;48.814;9.318;2022-12-24T00:07:04;13.50;69.00
1337;DHT22;662;48.814;9.318;2022-12-24T00:09:29;13.50;68.80
1337;DHT22;662;48.814;9.318;2022-12-24T00:11:55;13.50;68.60
1337;DHT22;662;48.814;9.318;2022-12-24T00:14:20;13.50;68.70
1337;DHT22;662;48.814;9.318;2022-12-24T00:16:46;13.50;68.90
1337;DHT22;662;48.814;9.318;2022-12-24T00:19:12;13.50;69.00
1337;DHT22;662;48.814;9.318;2022-12-24T00:21:38;13.50;69.20
1337;DHT22;662;48.814;9.318;2022-12-24T00:24:04;13.50;69.20
1337;DHT22;662;48.814;9.318;2022-12-24T00:26:31;13.50;69.00
1337;DHT22;662;48.814;9.318;2022-12-24T00:28:57;13.50;68.70
1337;DHT22;662;48.814;9.318;2022-12-24T00:31:23;13.50;68.40
1337;DHT22;662;48.814;9.318;2022-12-24T00:33:49;13.50;68.20
1337;DHT22;662;48.814;9.318;2022-12-24T00:36:16;13.50;67.90
1337;DHT22;662;48.814;9.318;2022-12-24T00:38:42;13.60;67.60
1337;DHT22;662;48.814;9.318;2022-12-24T00:41:09;13.60;67.60
1337;DHT22;662;48.814;9.318;2022-12-24T00:43:56;13.60;67.50
1337;DHT22;662;48.814;9.318;2022-12-24T00:46:23;13.60;67.10
1337;DHT22;662;48.814;9.318;2022-12-24T00:48:49;13.60;66.70
1337;DHT22;662;48.814;9.318;2022-12-24T00:51:15;13.60;66.80
1337;DHT22;662;48.814;9.318;2022-12-24T00:53:41;13.60;66.80
1337;DHT22;662;48.814;9.318;2022-12-24T00:56:07;13.60;66.60
1337;DHT22;662;48.814;9.318;2022-12-24T00:58:34;13.60;66.50
1337;DHT22;662;48.814;9.318;2022-12-24T01:00:59;13.60;66.70
1337;DHT22;662;48.814;9.318;2022-12-24T01:03:25;13.60;66.70
1337;DHT22;662;48.814;9.318;2022-12-24T01:06:01;13.50;66.70
1337;DHT22;662;48.814;9.318;2022-12-24T01:08:27;13.60;66.70
1337;DHT22;662;48.814;9.318;2022-12-24T01:10:53;13.60;66.60
1337;DHT22;662;48.814;9.318;2022-12-24T01:13:18;13.60;66.60
1337;DHT22;662;48.814;9.318;2022-12-24T01:15:44;13.60;66.30
1337;DHT22;662;48.814;9.318;2022-12-24T01:18:10;13.60;66.10
1337;DHT22;662;48.814;9.318;2022-12-24T01:20:36;13.70;65.60
1337;DHT22;662;48.814;9.318;2022-12-24T01:23:01;13.70;65.50
1337;DHT22;662;48.814;9.318;2022-12-24T01:25:27;13.70;65.60
1337;DHT22;662;48.814;9.318;2022-12-24T01:27:52;13.70;65.90
1337;DHT22;662;48.814;9.318;2022-12-24T01:30:18;13.70;66.60
1337;DHT22;662;48.814;9.318;2022-12-24T01:32:44;13.70;67.10
1337;DHT22;662;48.814;9.318;2022-12-24T01:35:10;13.70;67.50
1337;DHT22;662;48.814;9.318;2022-12-24T01:37:36;13.60;67.90
1337;DHT22;662;48.814;9.318;2022-12-24T01:40:03;13.60;68.30
1337;DHT22;662;48.814;9.318;2022-12-24T01:42:48;13.60;68.60
1337;DHT22;662;48.814;9.318;2022-12-24T01:50:47;13.50;69.60
1337;DHT22;662;48.814;9.318;2022-12-24T01:53:15;13.50;70.10
1337;DHT22;662;48.814;9.318;2022-12-24T01:55:41;13.40;70.70
1337;DHT22;662;48.814;9.318;2022-12-24T01:58:09;13.30;71.40
1337;DHT22;662;48.814;9.318;2022-12-24T02:00:35;13.20;72.00
1337;DHT22;662;48.814;9.318;2022-12-24T02:03:01;13.20;72.80
1337;DHT22;662;48.814;9.318;2022-12-24T02:05:31;13.10;73.40
1337;DHT22;662;48.814;9.318;2022-12-24T02:07:59;13.00;73.90
1337;DHT22;662;48.814;9.318;2022-12-24T02:10:26;12.90;74.50
1337;DHT22;662;48.814;9.318;2022-12-24T02:12:52;12.90;74.80
1337;DHT22;662;48.814;9.318;2022-12-24T02:15:20;12.90;75.20
1337;DHT22;662;48.814;9.318;2022-12-24T02:18:15;12.80;75.70
1337;DHT22;662;48.814;9.318;2022-12-24T02:20:58;12.70;76.10
1337;DHT22;662;48.814;9.318;2022-12-24T02:27:07;12.60;77.00
1337;DHT22;662;48.814;9.318;2022-12-24T02:32:24;12.50;77.40
1337;DHT22;662;48.814;9.318;2022-12-24T02:37:55;12.50;78.00
1337;DHT22;662;48.814;9.318;2022-12-24T02:40:35;12.40;78.20
1337;DHT22;662;48.814;9.318;2022-12-24T02:43:07;12.40;78.30
1337;DHT22;662;48.814;9.318;2022-12-24T02:45:35;12.40;78.40
1337;DHT22;662;48.814;9.318;2022-12-24T02:48:03;12.40;78.50
1337;DHT22;662;48.814;9.318;2022-12-24T02:50:29;12.40;79.30
1337;DHT22;662;48.814;9.318;2022-12-24T02:52:55;12.40;78.70
1337;DHT22;662;48.814;9.318;2022-12-24T02:55:43;12.40;78.80
1337;DHT22;662;48.814;9.318;2022-12-24T03:06:32;12.40;78.70
1337;DHT22;662;48.814;9.318;2022-12-24T03:11:43;12.30;78.80
1337;DHT22;662;48.814;9.318;2022-12-24T03:14:11;12.30;78.90
1337;DHT22;662;48.814;9.318;2022-12-24T03:16:38;12.20;78.80
1337;DHT22;662;48.814;9.318;2022-12-24T03:19:04;12.30;78.90
1337;DHT22;662;48.814;9.318;2022-12-24T03:21:33;12.20;78.90
1337;DHT22;662;48.814;9.318;2022-12-24T03:24:00;12.20;78.90
1337;DHT22;662;48.814;9.318;2022-12-24T03:26:28;12.20;78.90
1337;DHT22;662;48.814;9.318;2022-12-24T03:28:55;12.20;78.90
1337;DHT22;662;48.814;9.318;2022-12-24T03:31:21;12.10;78.90
1337;DHT22;662;48.814;9.318;2022-12-24T03:33:47;12.10;79.10
1337;DHT22;662;48.814;9.318;2022-12-24T03:36:13;12.10;79.30
1337;DHT22;662;48.814;9.318;2022-12-24T03:38:39;12.10;79.30
1337;DHT22;662;48.814;9.318;2022-12-24T03:41:05;12.10;79.40
1337;DHT22;662;48.814;9.318;2022-12-24T03:43:31;12.00;79.50
1337;DHT22;662;48.814;9.318;2022-12-24T03:45:57;12.00;79.60
1337;DHT22;662;48.814;9.318;2022-12-24T03:48:23;12.00;79.70
1337;DHT22;662;48.814;9.318;2022-12-24T03:50:48;12.00;79.70
1337;DHT22;662;48.814;9.318;2022-12-24T03:53:14;12.00;79.70
1337;DHT22;662;48.814;9.318;2022-12-24T03:55:40;12.00;79.60
1337;DHT22;662;48.814;9.318;2022-12-24T03:58:05;12.00;79.50
1337;DHT22;662;48.814;9.318;2022-12-24T04:00:31;12.10;79.40
1337;DHT22;662;48.814;9.318;2022-12-24T04:02:57;12.10;79.10
1337;DHT22;662;48.814;9.318;2022-12-24T04:05:22;12.10;78.90
1337;DHT22;662;48.814;9.318;2022-12-24T04:07:48;12.10;78.70
1337;DHT22;662;48.814;9.318;2022-12-24T04:10:14;12.10;78.60
1337;DHT22;662;48.814;9.318;2022-12-24T04:12:41;12.10;78.40
1337;DHT22;662;48.814;9.318;2022-12-24T04:15:07;12.10;78.20
1337;DHT22;662;48.814;9.318;2022-12-24T04:17:33;12.10;78.10
1337;DHT22;662;48.814;9.318;2022-12-24T04:19:58;12.10;78.00
1337;DHT22;662;48.814;9.318;2022-12-24T04:22:24;12.10;77.70
1337;DHT22;662;48.814;9.318;2022-12-24T04:24:49;12.20;77.70
1337;DHT22;662;48.814;9.318;2022-12-24T04:27:16;12.20;77.60
1337;DHT22;662;48.814;9.318;2022-12-24T04:29:41;12.20;77.50
1337;DHT22;662;48.814;9.318;2022-12-24T04:32:07;12.20;77.40
1337;DHT22;662;48.814;9.318;2022-12-24T04:34:34;12.20;77.30
1337;DHT22;662;48.814;9.318;2022-12-24T04:37:00;12.20;77.20
1337;DHT22;662;48.814;9.318;2022-12-24T04:39:26;12.30;77.10
1337;DHT22;662;48.814;9.318;2022-12-24T04:41:51;12.30;77.10
1337;DHT22;662;48.814;9.318;2022-12-24T04:44:17;12.30;77.00
1337;DHT22;662;48.814;9.318;2022-12-24T04:46:42;12.30;77.10
1337;DHT22;662;48.814;9.318;2022-12-24T04:49:09;12.30;77.10
1337;DHT22;662;48.814;9.318;2022-12-24T04:51:35;12.30;77.10
1337;DHT22;662;48.814;9.318;2022-12-24T04:54:00;12.30;77.30
1337;DHT22;662;48.814;9.318;2022-12-24T04:56:29;12.30;77.30
1337;DHT22;662;48.814;9.318;2022-12-24T04:58:55;12.30;77.40
1337;DHT22;662;48.814;9.318;2022-12-24T05:01:23;12.30;77.50
1337;DHT22;662;48.814;9.318;2022-12-24T05:03:49;12.30;77.60
1337;DHT22;662;48.814;9.318;2022-12-24T05:06:19;12.30;77.70
1337;DHT22;662;48.814;9.318;2022-12-24T05:08:45;12.30;77.70
1337;DHT22;662;48.814;9.318;2022-12-24T05:11:12;12.30;77.80
1337;DHT22;662;48.814;9.318;2022-12-24T05:13:44;12.30;77.90
1337;DHT22;662;48.814;9.318;2022-12-24T05:16:10;12.30;78.00
1337;DHT22;662;48.814;9.318;2022-12-24T05:18:37;12.20;78.10
1337;DHT22;662;48.814;9.318;2022-12-24T05:21:07;12.20;78.20
1337;DHT22;662;48.814;9.318;2022-12-24T05:23:33;12.20;78.40
1337;DHT22;662;48.814;9.318;2022-12-24T05:26:37;12.20;78.40
1337;DHT22;662;48.814;9.318;2022-12-24T05:29:04;12.20;78.50
1337;DHT22;662;48.814;9.318;2022-12-24T05:31:31;12.20;78.50
1337;DHT22;662;48.814;9.318;2022-12-24T05:33:58;12.10;78.40
1337;DHT22;662;48.814;9.318;2022-12-24T05:36:23;12.10;78.40
1337;DHT22;662;48.814;9.318;2022-12-24T05:38:50;12.10;78.60
1337;DHT22;662;48.814;9.318;2022-12-24T05:41:17;12.10;77.40
1337;DHT22;662;48.814;9.318;2022-12-24T05:43:42;12.10;75.20
1337;DHT22;662;48.814;9.318;2022-12-24T05:46:10;12.10;74.30
1337;DHT22;662;48.814;9.318;2022-12-24T05:48:36;12.10;73.00
1337;DHT22;662;48.814;9.318;2022-12-24T05:51:10;12.10;72.50
1337;DHT22;662;48.814;9.318;2022-12-24T05:53:36;12.20;71.80
1337;DHT22;662;48.814;9.318;2022-12-24T05:56:07;12.20;71.10
1337;DHT22;662;48.814;9.318;2022-12-24T05:58:33;12.20;70.50
1337;DHT22;662;48.814;9.318;2022-12-24T06:01:00;12.20;70.60
1337;DHT22;662;48.814;9.318;2022-12-24T06:03:26;12.20;70.90
1337;DHT22;662;48.814;9.318;2022-12-24T06:08:24;12.20;70.90
1337;DHT22;662;48.814;9.318;2022-12-24T06:11:11;12.20;70.60
1337;DHT22;662;48.814;9.318;2022-12-24T06:13:38;12.10;70.60
1337;DHT22;662;48.814;9.318;2022-12-24T06:16:06;12.10;70.10
1337;DHT22;662;48.814;9.318;2022-12-24T06:18:33;12.10;70.30
1337;DHT22;662;48.814;9.318;2022-12-24T06:20:59;12.10;70.50
1337;DHT22;662;48.814;9.318;2022-12-24T06:23:27;12.10;70.70
1337;DHT22;662;48.814;9.318;2022-12-24T06:25:55;12.10;70.70
1337;DHT22;662;48.814;9.318;2022-12-24T06:28:21;12.10;70.70
1337;DHT22;662;48.814;9.318;2022-12-24T06:30:48;12.10;70.70
1337;DHT22;662;48.814;9.318;2022-12-24T06:33:15;12.10;70.70
1337;DHT22;662;48.814;9.318;2022-12-24T06:35:40;12.20;70.40
1337;DHT22;662;48.814;9.318;2022-12-24T06:38:06;12.20;69.40
1337;DHT22;662;48.814;9.318;2022-12-24T06:40:32;12.20;69.00
1337;DHT22;662;48.814;9.318;2022-12-24T06:42:57;12.20;69.10
1337;DHT22;662;48.814;9.318;2022-12-24T06:45:23;12.20;69.40
1337;DHT22;662;48.814;9.318;2022-12-24T06:47:49;12.20;69.90
1337;DHT22;662;48.814;9.318;2022-12-24T06:50:15;12.20;70.10
1337;DHT22;662;48.814;9.318;2022-12-24T06:52:41;12.20;70.20
1337;DHT22;662;48.814;9.318;2022-12-24T06:55:07;12.20;70.30
1337;DHT22;662;48.814;9.318;2022-12-24T06:57:32;12.20;70.40
1337;DHT22;662;48.814;9.318;2022-12-24T06:59:58;12.20;70.60
1337;DHT22;662;48.814;9.318;2022-12-24T07:02:24;12.20;70.70
1337;DHT22;662;48.814;9.318;2022-12-24T07:04:50;12.10;70.80
1337;DHT22;662;48.814;9.318;2022-12-24T07:07:18;12.10;71.00
1337;DHT22;662;48.814;9.318;2022-12-24T07:09:44;12.10;70.90
1337;DHT22;662;48.814;9.318;2022-12-24T07:12:10;12.10;70.90
1337;DHT22;662;48.814;9.318;2022-12-24T07:14:35;12.10;70.80
1337;DHT22;662;48.814;9.318;2022-12-24T07:17:01;12.20;70.90
1337;DHT22;662;48.814;9.318;2022-12-24T07:19:27;12.20;70.90
1337;DHT22;662;48.814;9.318;2022-12-24T07:21:52;12.10;70.70
1337;DHT22;662;48.814;9.318;2022-12-24T07:24:18;12.20;70.80
1337;DHT22;662;48.814;9.318;2022-12-24T07:26:44;12.20;70.70
1337;DHT22;662;48.814;9.318;2022-12-24T07:29:10;12.20;70.70
1337;DHT22;662;48.814;9.318;2022-12-24T07:31:35;12.20;70.50
1337;DHT22;662;48.814;9.318;2022-12-24T07:34:01;12.30;70.40
1337;DHT22;662;48.814;9.318;2022-12-24T07:36:26;12.30;70.30
1337;DHT22;662;48.814;9.318;2022-12-24T07:38:53;12.30;70.20
1337;DHT22;662;48.814;9.318;2022-12-24T07:41:19;12.30;70.10
1337;DHT22;662;48.814;9.318;2022-12-24T07:43:45;12.30;69.60
1337;DHT22;662;48.814;9.318;2022-12-24T07:46:11;12.30;68.50
1337;DHT22;662;48.814;9.318;2022-12-24T07:48:37;12.30;68.10
1337;DHT22;662;48.814;9.318;2022-12-24T07:51:02;12.30;67.80
1337;DHT22;662;48.814;9.318;2022-12-24T07:53:29;12.30;67.70
1337;DHT22;662;48.814;9.318;2022-12-24T07:55:54;12.40;67.80
1337;DHT22;662;48.814;9.318;2022-12-24T07:58:21;12.40;67.80
1337;DHT22;662;48.814;9.318;2022-12-24T08:00:47;12.40;67.90
1337;DHT22;662;48.814;9.318;2022-12-24T08:03:19;12.40;68.00
1337;DHT22;662;48.814;9.318;2022-12-24T08:05:45;12.40;67.90
1337;DHT22;662;48.814;9.318;2022-12-24T08:08:11;12.40;67.90
1337;DHT22;662;48.814;9.318;2022-12-24T08:10:38;12.40;67.90
1337;DHT22;662;48.814;9.318;2022-12-24T08:13:04;12.40;68.10
1337;DHT22;662;48.814;9.318;2022-12-24T08:15:30;12.40;68.20
1337;DHT22;662;48.814;9.318;2022-12-24T08:17:56;12.40;68.40
1337;DHT22;662;48.814;9.318;2022-12-24T08:20:21;12.40;68.40
1337;DHT22;662;48.814;9.318;2022-12-24T08:22:47;12.40;68.30
1337;DHT22;662;48.814;9.318;2022-12-24T08:25:13;12.40;68.20
1337;DHT22;662;48.814;9.318;2022-12-24T08:27:38;12.40;67.90
1337;DHT22;662;48.814;9.318;2022-12-24T08:30:05;12.40;67.70
1337;DHT22;662;48.814;9.318;2022-12-24T08:32:30;12.40;68.50
1337;DHT22;662;48.814;9.318;2022-12-24T08:34:56;12.40;67.80
1337;DHT22;662;48.814;9.318;2022-12-24T08:37:22;12.50;68.00
1337;DHT22;662;48.814;9.318;2022-12-24T08:39:47;12.50;68.10
1337;DHT22;662;48.814;9.318;2022-12-24T08:42:13;12.50;68.00
1337;DHT22;662;48.814;9.318;2022-12-24T08:44:38;12.50;68.10
1337;DHT22;662;48.814;9.318;2022-12-24T08:47:04;12.50;68.00
1337;DHT22;662;48.814;9.318;2022-12-24T08:49:30;12.40;67.90
1337;DHT22;662;48.814;9.318;2022-12-24T08:51:55;12.50;68.00
1337;DHT22;662;48.814;9.318;2022-12-24T08:54:22;12.50;67.80
1337;DHT22;662;48.814;9.318;2022-12-24T08:56:49;12.40;67.50
1337;DHT22;662;48.814;9.318;2022-12-24T08:59:15;12.50;67.60
1337;DHT22;662;48.814;9.318;2022-12-24T09:01:41;12.50;67.40
1337;DHT22;662;48.814;9.318;2022-12-24T09:04:06;12.50;67.40
1337;DHT22;662;48.814;9.318;2022-12-24T09:06:32;12.50;67.30
1337;DHT22;662;48.814;9.318;2022-12-24T09:08:58;12.50;67.20
1337;DHT22;662;48.814;9.318;2022-12-24T09:11:24;12.50;67.20
1337;DHT22;662;48.814;9.318;2022-12-24T09:13:49;12.50;67.10
1337;DHT22;662;48.814;9.318;2022-12-24T09:16:15;12.50;67.00
1337;DHT22;662;48.814;9.318;2022-12-24T09:18:41;12.50;66.90
1337;DHT22;662;48.814;9.318;2022-12-24T09:21:13;12.50;67.10
1337;DHT22;662;48.814;9.318;2022-12-24T09:23:40;12.50;67.10
1337;DHT22;662;48.814;9.318;2022-12-24T09:26:07;12.50;67.20
1337;DHT22;662;48.814;9.318;2022-12-24T09:28:33;12.50;67.00
1337;DHT22;662;48.814;9.318;2022-12-24T09:31:01;12.60;67.00
1337;DHT22;662;48.814;9.318;2022-12-24T09:33:29;12.60;66.90
1337;DHT22;662;48.814;9.318;2022-12-24T09:35:54;12.60;66.60
1337;DHT22;662;48.814;9.318;2022-12-24T09:38:20;12.60;66.50
1337;DHT22;662;48.814;9.318;2022-12-24T09:40:47;12.60;66.40
1337;DHT22;662;48.814;9.318;2022-12-24T09:43:21;12.70;66.40
1337;DHT22;662;48.814;9.318;2022-12-24T09:48:24;12.70;66.00
1337;DHT22;662;48.814;9.318;2022-12-24T09:56:15;12.80;66.10
1337;DHT22;662;48.814;9.318;2022-12-24T09:58:48;12.80;66.10
1337;DHT22;662;48.814;9.318;2022-12-24T10:01:16;12.90;65.60
1337;DHT22;662;48.814;9.318;2022-12-24T10:03:42;12.90;65.10
1337;DHT22;662;48.814;9.318;2022-12-24T10:06:18;13.00;64.90
1337;DHT22;662;48.814;9.318;2022-12-24T10:11:46;13.10;64.90
1337;DHT22;662;48.814;9.318;2022-12-24T10:14:45;13.10;64.70
1337;DHT22;662;48.814;9.318;2022-12-24T10:20:00;13.20;64.50
1337;DHT22;662;48.814;9.318;2022-12-24T10:25:52;13.30;63.90
1337;DHT22;662;48.814;9.318;2022-12-24T10:28:23;13.30;63.30
1337;DHT22;662;48.814;9.318;2022-12-24T10:30:57;13.40;63.30
1337;DHT22;662;48.814;9.318;2022-12-24T10:33:41;13.50;63.10
1337;DHT22;662;48.814;9.318;2022-12-24T10:36:14;13.50;62.40
1337;DHT22;662;48.814;9.318;2022-12-24T10:38:42;13.50;62.50
1337;DHT22;662;48.814;9.318;2022-12-24T10:41:08;13.50;62.50
1337;DHT22;662;48.814;9.318;2022-12-24T10:43:35;13.50;62.40
1337;DHT22;662;48.814;9.318;2022-12-24T10:46:05;13.50;62.00
1337;DHT22;662;48.814;9.318;2022-12-24T10:48:54;13.50;62.00
1337;DHT22;662;48.814;9.318;2022-12-24T10:54:22;13.60;62.00
1337;DHT22;662;48.814;9.318;2022-12-24T10:56:54;13.70;61.50
1337;DHT22;662;48.814;9.318;2022-12-24T10:59:30;13.80;61.10
1337;DHT22;662;48.814;9.318;2022-12-24T11:01:59;13.80;61.20
1337;DHT22;662;48.814;9.318;2022-12-24T11:04:28;13.80;61.50
1337;DHT22;662;48.814;9.318;2022-12-24T11:06:57;13.80;61.60
1337;DHT22;662;48.814;9.318;2022-12-24T11:09:53;13.80;61.50
1337;DHT22;662;48.814;9.318;2022-12-24T11:12:18;13.80;61.80
1337;DHT22;662;48.814;9.318;2022-12-24T11:14:45;13.80;62.00
1337;DHT22;662;48.814;9.318;2022-12-24T11:17:21;13.80;62.40
1337;DHT22;662;48.814;9.318;2022-12-24T11:19:48;13.80;62.50
1337;DHT22;662;48.814;9.318;2022-12-24T11:22:29;13.80;62.40
1337;DHT22;662;48.814;9.318;2022-12-24T11:25:06;13.70;62.10
1337;DHT22;662;48.814;9.318;2022-12-24T11:27:42;13.70;62.40
1337;DHT22;662;48.814;9.318;2022-12-24T11:32:50;13.60;62.70
1337;DHT22;662;48.814;9.318;2022-12-24T11:35:32;13.60;62.80
1337;DHT22;662;48.814;9.318;2022-12-24T11:40:43;13.60;62.80
1337;DHT22;662;48.814;9.318;2022-12-24T11:43:18;13.50;62.80
1337;DHT22;662;48.814;9.318;2022-12-24T11:45:55;13.50;63.00
1337;DHT22;662;48.814;9.318;2022-12-24T11:48:28;13.60;63.00
1337;DHT22;662;48.814;9.318;2022-12-24T11:51:02;13.60;63.00
1337;DHT22;662;48.814;9.318;2022-12-24T11:54:12;13.60;63.20
1337;DHT22;662;48.814;9.318;2022-12-24T11:56:42;13.60;62.90
1337;DHT22;662;48.814;9.318;2022-12-24T11:59:18;13.70;62.70
1337;DHT22;662;48.814;9.318;2022-12-24T12:04:35;13.70;62.60
1337;DHT22;662;48.814;9.318;2022-12-24T12:07:03;13.80;62.60
1337;DHT22;662;48.814;9.318;2022-12-24T12:09:33;13.80;62.30
1337;DHT22;662;48.814;9.318;2022-12-24T12:12:17;13.80;62.40
1337;DHT22;662;48.814;9.318;2022-12-24T12:17:49;13.90;62.40
1337;DHT22;662;48.814;9.318;2022-12-24T12:20:31;13.90;62.30
1337;DHT22;662;48.814;9.318;2022-12-24T12:23:32;14.00;62.50
1337;DHT22;662;48.814;9.318;2022-12-24T12:28:26;14.10;63.00
1337;DHT22;662;48.814;9.318;2022-12-24T12:31:03;14.10;63.10
1337;DHT22;662;48.814;9.318;2022-12-24T12:33:46;14.10;63.30
1337;DHT22;662;48.814;9.318;2022-12-24T12:36:17;14.10;63.40
1337;DHT22;662;48.814;9.318;2022-12-24T12:38:43;14.10;63.60
1337;DHT22;662;48.814;9.318;2022-12-24T12:41:16;14.10;63.80
1337;DHT22;662;48.814;9.318;2022-12-24T12:44:08;14.10;64.00
1337;DHT22;662;48.814;9.318;2022-12-24T12:46:52;14.10;64.30
1337;DHT22;662;48.814;9.318;2022-12-24T12:49:38;14.00;64.30
1337;DHT22;662;48.814;9.318;2022-12-24T12:55:01;14.00;64.60
1337;DHT22;662;48.814;9.318;2022-12-24T12:57:36;14.00;64.80
1337;DHT22;662;48.814;9.318;2022-12-24T13:00:09;14.00;64.90
1337;DHT22;662;48.814;9.318;2022-12-24T13:05:36;14.00;65.30
1337;DHT22;662;48.814;9.318;2022-12-24T13:16:56;13.90;66.20
1337;DHT22;662;48.814;9.318;2022-12-24T13:21:56;13.90;66.60
1337;DHT22;662;48.814;9.318;2022-12-24T13:24:24;13.90;66.80
1337;DHT22;662;48.814;9.318;2022-12-24T13:30:30;13.90;67.10
1337;DHT22;662;48.814;9.318;2022-12-24T13:32:56;14.00;67.20
1337;DHT22;662;48.814;9.318;2022-12-24T13:37:48;14.00;67.40
1337;DHT22;662;48.814;9.318;2022-12-24T13:40:26;14.00;67.50
1337;DHT22;662;48.814;9.318;2022-12-24T13:47:59;14.10;67.70
1337;DHT22;662;48.814;9.318;2022-12-24T13:50:48;14.10;67.80
1337;DHT22;662;48.814;9.318;2022-12-24T13:56:06;14.10;67.90
1337;DHT22;662;48.814;9.318;2022-12-24T13:58:35;14.10;67.90
1337;DHT22;662;48.814;9.318;2022-12-24T14:01:05;14.10;68.00
1337;DHT22;662;48.814;9.318;2022-12-24T14:06:21;14.10;68.10
1337;DHT22;662;48.814;9.318;2022-12-24T14:08:55;14.00;68.10
1337;DHT22;662;48.814;9.318;2022-12-24T14:11:24;14.00;68.10
1337;DHT22;662;48.814;9.318;2022-12-24T14:14:24;14.00;68.90
1337;DHT22;662;48.814;9.318;2022-12-24T14:16:50;14.00;68.20
1337;DHT22;662;48.814;9.318;2022-12-24T14:19:24;13.90;68.20
1337;DHT22;662;48.814;9.318;2022-12-24T14:24:36;13.90;68.30
1337;DHT22;662;48.814;9.318;2022-12-24T14:27:16;13.90;68.40
1337;DHT22;662;48.814;9.318;2022-12-24T14:30:07;13.90;68.50
1337;DHT22;662;48.814;9.318;2022-12-24T14:32:40;13.90;69.30
1337;DHT22;662;48.814;9.318;2022-12-24T14:37:31;13.90;68.80
1337;DHT22;662;48.814;9.318;2022-12-24T14:39:58;13.90;68.80
1337;DHT22;662;48.814;9.318;2022-12-24T14:42:48;13.90;68.90
1337;DHT22;662;48.814;9.318;2022-12-24T14:45:34;13.90;68.90
1337;DHT22;662;48.814;9.318;2022-12-24T14:48:21;13.80;68.90
1337;DHT22;662;48.814;9.318;2022-12-24T14:55:49;13.70;69.20
1337;DHT22;662;48.814;9.318;2022-12-24T15:01:42;13.60;69.30
1337;DHT22;662;48.814;9.318;2022-12-24T15:06:27;13.50;69.40
1337;DHT22;662;48.814;9.318;2022-12-24T15:08:54;13.50;69.50
1337;DHT22;662;48.814;9.318;2022-12-24T15:11:21;13.40;69.60
1337;DHT22;662;48.814;9.318;2022-12-24T15:13:49;13.40;69.70
1337;DHT22;662;48.814;9.318;2022-12-24T15:16:26;13.30;69.80
1337;DHT22;662;48.814;9.318;2022-12-24T15:18:56;13.30;70.00
1337;DHT22;662;48.814;9.318;2022-12-24T15:21:32;13.20;70.00
1337;DHT22;662;48.814;9.318;2022-12-24T15:23:59;13.10;70.10
1337;DHT22;662;48.814;9.318;2022-12-24T15:26:33;13.10;70.20
1337;DHT22;662;48.814;9.318;2022-12-24T15:29:01;13.10;70.30
1337;DHT22;662;48.814;9.318;2022-12-24T15:31:37;13.10;70.50
1337;DHT22;662;48.814;9.318;2022-12-24T15:34:03;13.00;70.50
1337;DHT22;662;48.814;9.318;2022-12-24T15:36:34;13.00;70.60
1337;DHT22;662;48.814;9.318;2022-12-24T15:39:12;13.00;70.70
1337;DHT22;662;48.814;9.318;2022-12-24T15:41:41;12.90;70.80
1337;DHT22;662;48.814;9.318;2022-12-24T15:44:28;12.90;70.90
1337;DHT22;662;48.814;9.318;2022-12-24T15:47:01;12.80;70.90
1337;DHT22;662;48.814;9.318;2022-12-24T15:49:30;12.80;71.00
1337;DHT22;662;48.814;9.318;2022-12-24T15:52:11;12.80;71.10
1337;DHT22;662;48.814;9.318;2022-12-24T15:54:43;12.70;71.10
1337;DHT22;662;48.814;9.318;2022-12-24T15:57:32;12.70;71.20
1337;DHT22;662;48.814;9.318;2022-12-24T16:00:00;12.70;71.40
1337;DHT22;662;48.814;9.318;2022-12-24T16:05:16;12.60;71.50
1337;DHT22;662;48.814;9.318;2022-12-24T16:13:30;12.50;71.70
1337;DHT22;662;48.814;9.318;2022-12-24T16:15:58;12.40;71.70
1337;DHT22;662;48.814;9.318;2022-12-24T16:21:01;12.40;72.00
1337;DHT22;662;48.814;9.318;2022-12-24T16:23:38;12.40;72.00
1337;DHT22;662;48.814;9.318;2022-12-24T16:26:09;12.40;72.10
1337;DHT22;662;48.814;9.318;2022-12-24T16:28:35;12.30;72.10
1337;DHT22;662;48.814;9.318;2022-12-24T16:31:01;12.30;72.20
1337;DHT22;662;48.814;9.318;2022-12-24T16:33:26;12.30;72.50
1337;DHT22;662;48.814;9.318;2022-12-24T16:35:53;12.30;72.60
1337;DHT22;662;48.814;9.318;2022-12-24T16:38:19;12.30;72.70
1337;DHT22;662;48.814;9.318;2022-12-24T16:40:45;12.30;72.80
1337;DHT22;662;48.814;9.318;2022-12-24T16:43:11;12.30;72.80
1337;DHT22;662;48.814;9.318;2022-12-24T16:46:00;12.30;72.90
1337;DHT22;662;48.814;9.318;2022-12-24T16:48:26;12.30;72.80
1337;DHT22;662;48.814;9.318;2022-12-24T16:50:53;12.30;72.90
1337;DHT22;662;48.814;9.318;2022-12-24T16:53:20;12.30;73.00
1337;DHT22;662;48.814;9.318;2022-12-24T16:55:46;12.30;73.00
1337;DHT22;662;48.814;9.318;2022-12-24T16:58:14;12.20;72.90
1337;DHT22;662;48.814;9.318;2022-12-24T17:00:41;12.30;73.10
1337;DHT22;662;48.814;9.318;2022-12-24T17:03:07;12.30;73.00
1337;DHT22;662;48.814;9.318;2022-12-24T17:05:36;12.20;73.00
1337;DHT22;662;48.814;9.318;2022-12-24T17:08:02;12.30;73.10
1337;DHT22;662;48.814;9.318;2022-12-24T17:10:28;12.20;73.10
1337;DHT22;662;48.814;9.318;2022-12-24T17:12:54;12.20;73.10
1337;DHT22;662;48.814;9.318;2022-12-24T17:15:19;12.20;73.20
1337;DHT22;662;48.814;9.318;2022-12-24T17:17:45;12.20;73.20
1337;DHT22;662;48.814;9.318;2022-12-24T17:20:11;12.20;73.90
1337;DHT22;662;48.814;9.318;2022-12-24T17:22:37;12.20;73.30
1337;DHT22;662;48.814;9.318;2022-12-24T17:25:04;12.20;73.30
1337;DHT22;662;48.814;9.318;2022-12-24T17:27:30;12.20;73.40
1337;DHT22;662;48.814;9.318;2022-12-24T17:29:55;12.20;73.50
1337;DHT22;662;48.814;9.318;2022-12-24T17:32:21;12.20;73.50
1337;DHT22;662;48.814;9.318;2022-12-24T17:34:47;12.20;73.50
1337;DHT22;662;48.814;9.318;2022-12-24T17:37:12;12.20;73.60
1337;DHT22;662;48.814;9.318;2022-12-24T17:39:38;12.20;73.60
1337;DHT22;662;48.814;9.318;2022-12-24T17:42:04;12.20;73.50
1337;DHT22;662;48.814;9.318;2022-12-24T17:44:29;12.20;73.60
1337;DHT22;662;48.814;9.318;2022-12-24T17:46:55;12.20;73.60
1337;DHT22;662;48.814;9.318;2022-12-24T17:49:21;12.20;73.70
1337;DHT22;662;48.814;9.318;2022-12-24T17:51:46;12.20;73.70
1337;DHT22;662;48.814;9.318;2022-12-24T17:54:12;12.10;73.70
1337;DHT22;662;48.814;9.318;2022-12-24T17:56:38;12.10;73.70
1337;DHT22;662;48.814;9.318;2022-12-24T17:59:04;12.10;73.70
1337;DHT22;662;48.814;9.318;2022-12-24T18:01:30;12.10;73.80
1337;DHT22;662;48.814;9.318;2022-12-24T18:03:58;12.10;73.90
1337;DHT22;662;48.814;9.318;2022-12-24T18:06:24;12.00;73.70
1337;DHT22;662;48.814;9.318;2022-12-24T18:08:50;12.10;73.80
1337;DHT22;662;48.814;9.318;2022-12-24T18:11:22;12.00;73.80
1337;DHT22;662;48.814;9.318;2022-12-24T18:13:48;12.00;73.90
1337;DHT22;662;48.814;9.318;2022-12-24T18:16:20;12.00;73.80
1337;DHT22;662;48.814;9.318;2022-12-24T18:18:47;12.00;73.90
1337;DHT22;662;48.814;9.318;2022-12-24T18:21:14;12.00;74.00
1337;DHT22;662;48.814;9.318;2022-12-24T18:23:42;12.00;74.00
1337;DHT22;662;48.814;9.318;2022-12-24T18:26:09;12.00;74.10
1337;DHT22;662;48.814;9.318;2022-12-24T18:28:34;12.00;74.10
1337;DHT22;662;48.814;9.318;2022-12-24T18:31:05;12.00;74.10
1337;DHT22;662;48.814;9.318;2022-12-24T18:33:33;12.00;74.10